sensor_id;sensor_type;location;lat;lon;timestamp;temperature;humidity
19348;DHT22;9810;52.480;9.806;2023-02-21T00:00:25;9.10;99.90
19348;DHT22;9810;52.480;9.806;2023-02-21T00:03:09;9.00;99.90
19348;DHT22;9810;52.480;9.806;2023-02-21T00:05:55;9.00;99.90
19348;DHT22;9810;52.480;9.806;2023-02-21T00:08:39;9.00;99.90
19348;DHT22;9810;52.480;9.806;2023-02-21T00:11:23;9.10;99.90
19348;DHT22;9810;52.480;9.806;2023-02-21T00:14:07;9.00;99.90
19348;DHT22;9810;52.480;9.806;2023-02-21T00:16:52;9.00;99.90
19348;DHT22;9810;52.480;9.806;2023-02-21T00:19:36;9.00;99.90
19348;DHT22;9810;52.480;9.806;2023-02-21T00:22:22;9.10;99.90
19348;DHT22;9810;52.480;9.806;2023-02-21T00:25:09;9.10;99.90
19348;DHT22;9810;52.480;9.806;2023-02-21T00:27:53;9.00;99.90
19348;DHT22;9810;52.480;9.806;2023-02-21T00:30:38;9.00;99.90
19348;DHT22;9810;52.480;9.806;2023-02-21T00:33:22;9.10;99.90
19348;DHT22;9810;52.480;9.806;2023-02-21T00:36:07;9.10;99.90
19348;DHT22;9810;52.480;9.806;2023-02-21T00:38:53;9.10;99.90
19348;DHT22;9810;52.480;9.806;2023-02-21T00:41:38;9.10;99.90
19348;DHT22;9810;52.480;9.806;2023-02-21T00:44:22;9.10;99.90
19348;DHT22;9810;52.480;9.806;2023-02-21T00:47:06;9.20;99.90
19348;DHT22;9810;52.480;9.806;2023-02-21T00:49:50;9.20;99.90
19348;DHT22;9810;52.480;9.806;2023-02-21T00:52:35;9.10;99.90
19348;DHT22;9810;52.480;9.806;2023-02-21T00:55:20;9.10;99.90
19348;DHT22;9810;52.480;9.806;2023-02-21T00:58:05;9.20;99.90
19348;DHT22;9810;52.480;9.806;2023-02-21T01:00:49;9.20;99.90
19348;DHT22;9810;52.480;9.806;2023-02-21T01:03:34;9.10;99.90
19348;DHT22;9810;52.480;9.806;2023-02-21T01:06:18;9.20;99.90
19348;DHT22;9810;52.480;9.806;2023-02-21T01:09:02;9.20;99.90
19348;DHT22;9810;52.480;9.806;2023-02-21T01:11:48;9.20;99.90
19348;DHT22;9810;52.480;9.806;2023-02-21T01:14:33;9.10;99.90
19348;DHT22;9810;52.480;9.806;2023-02-21T01:17:18;9.20;99.90
19348;DHT22;9810;52.480;9.806;2023-02-21T01:20:04;9.20;99.90
19348;DHT22;9810;52.480;9.806;2023-02-21T01:22:48;9.20;99.90
19348;DHT22;9810;52.480;9.806;2023-02-21T01:25:33;9.20;99.90
19348;DHT22;9810;52.480;9.806;2023-02-21T01:28:18;9.20;99.90
19348;DHT22;9810;52.480;9.806;2023-02-21T01:31:03;9.20;99.90
19348;DHT22;9810;52.480;9.806;2023-02-21T01:33:47;9.20;99.90
19348;DHT22;9810;52.480;9.806;2023-02-21T01:36:32;9.30;99.90
19348;DHT22;9810;52.480;9.806;2023-02-21T01:39:16;9.20;99.90
19348;DHT22;9810;52.480;9.806;2023-02-21T01:42:01;9.30;99.90
19348;DHT22;9810;52.480;9.806;2023-02-21T01:44:47;9.30;99.90
19348;DHT22;9810;52.480;9.806;2023-02-21T01:47:32;9.30;99.90
19348;DHT22;9810;52.480;9.806;2023-02-21T01:50:20;9.30;99.90
19348;DHT22;9810;52.480;9.806;2023-02-21T01:53:08;9.30;99.90
19348;DHT22;9810;52.480;9.806;2023-02-21T01:55:55;9.40;99.90
19348;DHT22;9810;52.480;9.806;2023-02-21T01:58:40;9.30;99.90
19348;DHT22;9810;52.480;9.806;2023-02-21T02:01:33;9.40;99.90
19348;DHT22;9810;52.480;9.806;2023-02-21T02:04:19;9.30;99.90
19348;DHT22;9810;52.480;9.806;2023-02-21T02:07:03;9.40;99.90
19348;DHT22;9810;52.480;9.806;2023-02-21T02:09:48;9.30;99.90
19348;DHT22;9810;52.480;9.806;2023-02-21T02:12:52;9.30;99.90
19348;DHT22;9810;52.480;9.806;2023-02-21T02:15:30;9.30;99.90
19348;DHT22;9810;52.480;9.806;2023-02-21T02:18:22;9.30;99.90
19348;DHT22;9810;52.480;9.806;2023-02-21T02:24:23;9.10;99.90
19348;DHT22;9810;52.480;9.806;2023-02-21T02:27:13;9.10;99.90
19348;DHT22;9810;52.480;9.806;2023-02-21T02:35:45;9.10;99.90
19348;DHT22;9810;52.480;9.806;2023-02-21T02:38:22;9.10;99.90
19348;DHT22;9810;52.480;9.806;2023-02-21T02:40:56;9.20;99.90
19348;DHT22;9810;52.480;9.806;2023-02-21T02:43:30;9.10;99.90
19348;DHT22;9810;52.480;9.806;2023-02-21T02:46:01;9.10;99.90
19348;DHT22;9810;52.480;9.806;2023-02-21T02:48:34;9.10;99.90
19348;DHT22;9810;52.480;9.806;2023-02-21T02:51:07;9.10;99.90
19348;DHT22;9810;52.480;9.806;2023-02-21T02:53:35;9.10;99.90
19348;DHT22;9810;52.480;9.806;2023-02-21T02:56:04;9.10;99.90
19348;DHT22;9810;52.480;9.806;2023-02-21T02:58:37;9.20;99.90
19348;DHT22;9810;52.480;9.806;2023-02-21T03:01:20;9.20;99.90
19348;DHT22;9810;52.480;9.806;2023-02-21T03:03:57;9.10;99.90
19348;DHT22;9810;52.480;9.806;2023-02-21T03:06:35;9.20;99.90
19348;DHT22;9810;52.480;9.806;2023-02-21T03:09:12;9.10;99.90
19348;DHT22;9810;52.480;9.806;2023-02-21T03:11:46;9.10;99.90
19348;DHT22;9810;52.480;9.806;2023-02-21T03:14:18;9.10;99.90
19348;DHT22;9810;52.480;9.806;2023-02-21T03:16:51;9.10;99.90
19348;DHT22;9810;52.480;9.806;2023-02-21T03:19:24;9.10;99.90
19348;DHT22;9810;52.480;9.806;2023-02-21T03:21:56;9.10;99.90
19348;DHT22;9810;52.480;9.806;2023-02-21T03:24:25;9.10;99.90
19348;DHT22;9810;52.480;9.806;2023-02-21T03:26:56;9.10;99.90
19348;DHT22;9810;52.480;9.806;2023-02-21T03:29:26;9.10;99.90
19348;DHT22;9810;52.480;9.806;2023-02-21T03:31:59;9.10;99.90
19348;DHT22;9810;52.480;9.806;2023-02-21T03:34:38;9.10;99.90
19348;DHT22;9810;52.480;9.806;2023-02-21T03:37:10;9.10;99.90
19348;DHT22;9810;52.480;9.806;2023-02-21T03:39:37;9.20;99.90
19348;DHT22;9810;52.480;9.806;2023-02-21T03:42:05;9.10;99.90
19348;DHT22;9810;52.480;9.806;2023-02-21T03:44:32;9.10;99.90
19348;DHT22;9810;52.480;9.806;2023-02-21T03:47:03;9.10;99.90
19348;DHT22;9810;52.480;9.806;2023-02-21T03:49:30;9.20;99.90
19348;DHT22;9810;52.480;9.806;2023-02-21T03:51:57;9.20;99.90
19348;DHT22;9810;52.480;9.806;2023-02-21T03:54:27;9.20;99.90
19348;DHT22;9810;52.480;9.806;2023-02-21T03:56:55;9.20;99.90
19348;DHT22;9810;52.480;9.806;2023-02-21T03:59:23;9.20;99.90
19348;DHT22;9810;52.480;9.806;2023-02-21T04:01:50;9.20;99.90
19348;DHT22;9810;52.480;9.806;2023-02-21T04:04:18;9.20;99.90
19348;DHT22;9810;52.480;9.806;2023-02-21T04:06:49;9.20;99.90
19348;DHT22;9810;52.480;9.806;2023-02-21T04:09:16;9.20;99.90
19348;DHT22;9810;52.480;9.806;2023-02-21T04:11:46;9.20;99.90
19348;DHT22;9810;52.480;9.806;2023-02-21T04:14:13;9.10;99.90
19348;DHT22;9810;52.480;9.806;2023-02-21T04:16:41;9.10;99.90
19348;DHT22;9810;52.480;9.806;2023-02-21T04:19:08;9.20;99.90
19348;DHT22;9810;52.480;9.806;2023-02-21T04:21:40;9.10;99.90
19348;DHT22;9810;52.480;9.806;2023-02-21T04:24:09;9.10;99.90
19348;DHT22;9810;52.480;9.806;2023-02-21T04:26:37;9.10;99.90
19348;DHT22;9810;52.480;9.806;2023-02-21T04:29:08;9.20;99.90
19348;DHT22;9810;52.480;9.806;2023-02-21T04:31:36;9.10;99.90
19348;DHT22;9810;52.480;9.806;2023-02-21T04:34:06;9.10;99.90
19348;DHT22;9810;52.480;9.806;2023-02-21T04:36:33;9.10;99.90
19348;DHT22;9810;52.480;9.806;2023-02-21T04:39:02;9.10;99.90
19348;DHT22;9810;52.480;9.806;2023-02-21T04:41:32;9.10;99.90
19348;DHT22;9810;52.480;9.806;2023-02-21T04:43:59;9.10;99.90
19348;DHT22;9810;52.480;9.806;2023-02-21T04:46:28;9.20;99.90
19348;DHT22;9810;52.480;9.806;2023-02-21T04:48:56;9.20;99.90
19348;DHT22;9810;52.480;9.806;2023-02-21T04:51:25;9.10;99.90
19348;DHT22;9810;52.480;9.806;2023-02-21T04:53:53;9.20;99.90
19348;DHT22;9810;52.480;9.806;2023-02-21T04:56:22;9.20;99.90
19348;DHT22;9810;52.480;9.806;2023-02-21T04:58:50;9.20;99.90
19348;DHT22;9810;52.480;9.806;2023-02-21T05:01:19;9.20;99.90
19348;DHT22;9810;52.480;9.806;2023-02-21T05:03:48;9.20;99.90
19348;DHT22;9810;52.480;9.806;2023-02-21T05:06:19;9.20;99.90
19348;DHT22;9810;52.480;9.806;2023-02-21T05:08:47;9.20;99.90
19348;DHT22;9810;52.480;9.806;2023-02-21T05:11:15;9.20;99.90
19348;DHT22;9810;52.480;9.806;2023-02-21T05:13:43;9.20;99.90
19348;DHT22;9810;52.480;9.806;2023-02-21T05:16:10;9.20;99.90
19348;DHT22;9810;52.480;9.806;2023-02-21T05:18:40;9.20;99.90
19348;DHT22;9810;52.480;9.806;2023-02-21T05:21:09;9.20;99.90
19348;DHT22;9810;52.480;9.806;2023-02-21T05:23:40;9.20;99.90
19348;DHT22;9810;52.480;9.806;2023-02-21T05:26:22;9.20;99.90
19348;DHT22;9810;52.480;9.806;2023-02-21T05:28:50;9.30;99.90
19348;DHT22;9810;52.480;9.806;2023-02-21T05:31:19;9.20;99.90
19348;DHT22;9810;52.480;9.806;2023-02-21T05:33:46;9.10;99.90
19348;DHT22;9810;52.480;9.806;2023-02-21T05:36:15;9.20;99.90
19348;DHT22;9810;52.480;9.806;2023-02-21T05:38:44;9.20;99.90
19348;DHT22;9810;52.480;9.806;2023-02-21T05:41:12;9.20;99.90
19348;DHT22;9810;52.480;9.806;2023-02-21T05:43:39;9.20;99.90
19348;DHT22;9810;52.480;9.806;2023-02-21T05:46:06;9.30;99.90
19348;DHT22;9810;52.480;9.806;2023-02-21T05:48:34;9.20;99.90
19348;DHT22;9810;52.480;9.806;2023-02-21T05:51:01;9.30;99.90
19348;DHT22;9810;52.480;9.806;2023-02-21T05:53:30;9.20;99.90
19348;DHT22;9810;52.480;9.806;2023-02-21T05:55:58;9.30;99.90
19348;DHT22;9810;52.480;9.806;2023-02-21T05:58:25;9.30;99.90
19348;DHT22;9810;52.480;9.806;2023-02-21T06:00:52;9.30;99.90
19348;DHT22;9810;52.480;9.806;2023-02-21T06:03:20;9.30;99.90
19348;DHT22;9810;52.480;9.806;2023-02-21T06:05:47;9.30;99.90
19348;DHT22;9810;52.480;9.806;2023-02-21T06:08:14;9.30;99.90
19348;DHT22;9810;52.480;9.806;2023-02-21T06:10:44;9.30;99.90
19348;DHT22;9810;52.480;9.806;2023-02-21T06:13:12;9.30;99.90
19348;DHT22;9810;52.480;9.806;2023-02-21T06:15:39;9.40;99.90
19348;DHT22;9810;52.480;9.806;2023-02-21T06:18:07;9.30;99.90
19348;DHT22;9810;52.480;9.806;2023-02-21T06:20:34;9.30;99.90
19348;DHT22;9810;52.480;9.806;2023-02-21T06:23:02;9.40;99.90
19348;DHT22;9810;52.480;9.806;2023-02-21T06:25:29;9.30;99.90
19348;DHT22;9810;52.480;9.806;2023-02-21T06:27:58;9.30;99.90
19348;DHT22;9810;52.480;9.806;2023-02-21T06:30:26;9.40;99.90
19348;DHT22;9810;52.480;9.806;2023-02-21T06:32:53;9.40;99.90
19348;DHT22;9810;52.480;9.806;2023-02-21T06:35:21;9.40;99.90
19348;DHT22;9810;52.480;9.806;2023-02-21T06:37:48;9.40;99.90
19348;DHT22;9810;52.480;9.806;2023-02-21T06:40:15;9.30;99.90
19348;DHT22;9810;52.480;9.806;2023-02-21T06:42:43;9.30;99.90
19348;DHT22;9810;52.480;9.806;2023-02-21T06:45:12;9.30;99.90
19348;DHT22;9810;52.480;9.806;2023-02-21T06:47:39;9.40;99.90
19348;DHT22;9810;52.480;9.806;2023-02-21T06:50:06;9.30;99.90
19348;DHT22;9810;52.480;9.806;2023-02-21T06:52:34;9.30;99.90
19348;DHT22;9810;52.480;9.806;2023-02-21T06:55:01;9.40;99.90
19348;DHT22;9810;52.480;9.806;2023-02-21T06:57:28;9.30;99.90
19348;DHT22;9810;52.480;9.806;2023-02-21T06:59:56;9.20;99.90
19348;DHT22;9810;52.480;9.806;2023-02-21T07:02:25;9.30;99.90
19348;DHT22;9810;52.480;9.806;2023-02-21T07:04:53;9.30;99.90
19348;DHT22;9810;52.480;9.806;2023-02-21T07:07:20;9.30;99.90
19348;DHT22;9810;52.480;9.806;2023-02-21T07:09:48;9.40;99.90
19348;DHT22;9810;52.480;9.806;2023-02-21T07:12:15;9.30;99.90
19348;DHT22;9810;52.480;9.806;2023-02-21T07:14:42;9.30;99.90
19348;DHT22;9810;52.480;9.806;2023-02-21T07:17:10;9.30;99.90
19348;DHT22;9810;52.480;9.806;2023-02-21T07:19:39;9.40;99.90
19348;DHT22;9810;52.480;9.806;2023-02-21T07:22:06;9.40;99.90
19348;DHT22;9810;52.480;9.806;2023-02-21T07:24:34;9.40;99.90
19348;DHT22;9810;52.480;9.806;2023-02-21T07:27:02;9.30;99.90
19348;DHT22;9810;52.480;9.806;2023-02-21T07:29:30;9.30;99.90
19348;DHT22;9810;52.480;9.806;2023-02-21T07:31:57;9.30;99.90
19348;DHT22;9810;52.480;9.806;2023-02-21T07:34:25;9.30;99.90
19348;DHT22;9810;52.480;9.806;2023-02-21T07:36:55;9.40;99.90
19348;DHT22;9810;52.480;9.806;2023-02-21T07:39:22;9.40;99.90
19348;DHT22;9810;52.480;9.806;2023-02-21T07:41:49;9.30;99.90
19348;DHT22;9810;52.480;9.806;2023-02-21T07:44:17;9.30;99.90
19348;DHT22;9810;52.480;9.806;2023-02-21T07:46:44;9.30;99.90
19348;DHT22;9810;52.480;9.806;2023-02-21T07:49:14;9.40;99.90
19348;DHT22;9810;52.480;9.806;2023-02-21T07:51:41;9.50;99.90
19348;DHT22;9810;52.480;9.806;2023-02-21T07:54:10;9.50;99.90
19348;DHT22;9810;52.480;9.806;2023-02-21T07:56:42;9.50;99.90
19348;DHT22;9810;52.480;9.806;2023-02-21T07:59:10;9.40;99.90
19348;DHT22;9810;52.480;9.806;2023-02-21T08:01:39;9.40;99.90
19348;DHT22;9810;52.480;9.806;2023-02-21T08:04:07;9.50;99.90
19348;DHT22;9810;52.480;9.806;2023-02-21T08:06:35;9.50;99.90
19348;DHT22;9810;52.480;9.806;2023-02-21T08:09:05;9.50;99.90
19348;DHT22;9810;52.480;9.806;2023-02-21T08:11:34;9.50;99.90
19348;DHT22;9810;52.480;9.806;2023-02-21T08:14:02;9.50;99.90
19348;DHT22;9810;52.480;9.806;2023-02-21T08:16:30;9.60;99.90
19348;DHT22;9810;52.480;9.806;2023-02-21T08:18:57;9.60;99.90
19348;DHT22;9810;52.480;9.806;2023-02-21T08:21:25;9.60;99.90
19348;DHT22;9810;52.480;9.806;2023-02-21T08:23:52;9.60;99.90
19348;DHT22;9810;52.480;9.806;2023-02-21T08:26:21;9.70;99.90
19348;DHT22;9810;52.480;9.806;2023-02-21T08:28:50;9.70;99.90
19348;DHT22;9810;52.480;9.806;2023-02-21T08:31:17;9.70;99.90
19348;DHT22;9810;52.480;9.806;2023-02-21T08:33:45;9.80;99.90
19348;DHT22;9810;52.480;9.806;2023-02-21T08:36:12;9.80;99.90
19348;DHT22;9810;52.480;9.806;2023-02-21T08:38:44;9.80;99.90
19348;DHT22;9810;52.480;9.806;2023-02-21T08:41:14;9.90;99.90
19348;DHT22;9810;52.480;9.806;2023-02-21T08:43:42;9.80;99.90
19348;DHT22;9810;52.480;9.806;2023-02-21T08:46:11;9.80;99.90
19348;DHT22;9810;52.480;9.806;2023-02-21T08:48:38;9.90;99.90
19348;DHT22;9810;52.480;9.806;2023-02-21T08:51:06;9.90;99.90
19348;DHT22;9810;52.480;9.806;2023-02-21T08:53:33;9.90;99.90
19348;DHT22;9810;52.480;9.806;2023-02-21T08:56:00;9.90;99.90
19348;DHT22;9810;52.480;9.806;2023-02-21T08:58:28;10.00;99.90
19348;DHT22;9810;52.480;9.806;2023-02-21T09:00:57;10.00;99.90
19348;DHT22;9810;52.480;9.806;2023-02-21T09:03:26;10.10;99.90
19348;DHT22;9810;52.480;9.806;2023-02-21T09:05:54;10.10;99.90
19348;DHT22;9810;52.480;9.806;2023-02-21T09:08:26;10.10;99.90
19348;DHT22;9810;52.480;9.806;2023-02-21T09:10:55;10.10;99.90
19348;DHT22;9810;52.480;9.806;2023-02-21T09:13:24;10.00;99.90
19348;DHT22;9810;52.480;9.806;2023-02-21T09:15:52;10.10;99.90
19348;DHT22;9810;52.480;9.806;2023-02-21T09:18:19;10.00;99.90
19348;DHT22;9810;52.480;9.806;2023-02-21T09:20:48;10.10;99.90
19348;DHT22;9810;52.480;9.806;2023-02-21T09:23:18;10.20;99.90
19348;DHT22;9810;52.480;9.806;2023-02-21T09:25:48;10.30;99.90
19348;DHT22;9810;52.480;9.806;2023-02-21T09:28:16;10.30;99.90
19348;DHT22;9810;52.480;9.806;2023-02-21T09:30:44;10.20;99.90
19348;DHT22;9810;52.480;9.806;2023-02-21T09:33:12;10.30;99.90
19348;DHT22;9810;52.480;9.806;2023-02-21T09:35:40;10.30;99.90
19348;DHT22;9810;52.480;9.806;2023-02-21T09:38:09;10.20;99.90
19348;DHT22;9810;52.480;9.806;2023-02-21T09:40:41;10.20;99.90
19348;DHT22;9810;52.480;9.806;2023-02-21T09:43:13;10.20;99.90
19348;DHT22;9810;52.480;9.806;2023-02-21T09:45:42;10.20;99.90
19348;DHT22;9810;52.480;9.806;2023-02-21T09:48:13;10.40;99.90
19348;DHT22;9810;52.480;9.806;2023-02-21T09:50:44;10.40;99.90
19348;DHT22;9810;52.480;9.806;2023-02-21T09:53:18;10.50;99.90
19348;DHT22;9810;52.480;9.806;2023-02-21T09:55:47;10.30;99.90
19348;DHT22;9810;52.480;9.806;2023-02-21T09:58:19;10.40;99.90
19348;DHT22;9810;52.480;9.806;2023-02-21T10:00:47;10.40;99.90
19348;DHT22;9810;52.480;9.806;2023-02-21T10:03:43;10.30;99.90
19348;DHT22;9810;52.480;9.806;2023-02-21T10:06:23;10.40;99.90
19348;DHT22;9810;52.480;9.806;2023-02-21T10:08:56;10.50;99.90
19348;DHT22;9810;52.480;9.806;2023-02-21T10:11:34;10.60;99.90
19348;DHT22;9810;52.480;9.806;2023-02-21T10:14:12;10.70;99.90
19348;DHT22;9810;52.480;9.806;2023-02-21T10:16:47;10.80;99.90
19348;DHT22;9810;52.480;9.806;2023-02-21T10:19:20;10.90;99.90
19348;DHT22;9810;52.480;9.806;2023-02-21T10:21:52;11.00;99.90
19348;DHT22;9810;52.480;9.806;2023-02-21T10:24:26;11.20;99.90
19348;DHT22;9810;52.480;9.806;2023-02-21T10:26:59;10.90;99.90
19348;DHT22;9810;52.480;9.806;2023-02-21T10:29:34;10.90;99.90
19348;DHT22;9810;52.480;9.806;2023-02-21T10:32:04;11.00;99.90
19348;DHT22;9810;52.480;9.806;2023-02-21T10:34:32;11.00;99.90
19348;DHT22;9810;52.480;9.806;2023-02-21T10:37:19;10.90;99.90
19348;DHT22;9810;52.480;9.806;2023-02-21T10:39:54;11.20;99.90
19348;DHT22;9810;52.480;9.806;2023-02-21T10:42:29;11.20;99.90
19348;DHT22;9810;52.480;9.806;2023-02-21T10:44:58;11.30;99.90
19348;DHT22;9810;52.480;9.806;2023-02-21T10:47:30;11.60;99.90
19348;DHT22;9810;52.480;9.806;2023-02-21T10:50:04;11.90;99.90
19348;DHT22;9810;52.480;9.806;2023-02-21T10:52:36;11.90;99.90
19348;DHT22;9810;52.480;9.806;2023-02-21T10:55:09;11.90;99.90
19348;DHT22;9810;52.480;9.806;2023-02-21T10:57:41;12.10;99.90
19348;DHT22;9810;52.480;9.806;2023-02-21T11:00:20;12.50;99.90
19348;DHT22;9810;52.480;9.806;2023-02-21T11:02:53;12.90;99.90
19348;DHT22;9810;52.480;9.806;2023-02-21T11:05:21;13.50;99.90
19348;DHT22;9810;52.480;9.806;2023-02-21T11:08:00;13.30;99.90
19348;DHT22;9810;52.480;9.806;2023-02-21T11:10:32;13.40;99.90
19348;DHT22;9810;52.480;9.806;2023-02-21T11:13:19;13.30;99.90
19348;DHT22;9810;52.480;9.806;2023-02-21T11:15:47;13.00;99.90
19348;DHT22;9810;52.480;9.806;2023-02-21T11:18:17;13.10;99.90
19348;DHT22;9810;52.480;9.806;2023-02-21T11:20:45;13.10;99.90
19348;DHT22;9810;52.480;9.806;2023-02-21T11:23:18;13.10;99.90
19348;DHT22;9810;52.480;9.806;2023-02-21T11:25:59;12.50;99.90
19348;DHT22;9810;52.480;9.806;2023-02-21T11:28:36;12.00;99.90
19348;DHT22;9810;52.480;9.806;2023-02-21T11:31:10;12.70;99.90
19348;DHT22;9810;52.480;9.806;2023-02-21T11:33:40;12.50;99.90
19348;DHT22;9810;52.480;9.806;2023-02-21T11:36:11;12.70;99.90
19348;DHT22;9810;52.480;9.806;2023-02-21T11:38:40;12.50;99.90
19348;DHT22;9810;52.480;9.806;2023-02-21T11:41:20;12.70;99.90
19348;DHT22;9810;52.480;9.806;2023-02-21T11:43:49;12.30;99.90
19348;DHT22;9810;52.480;9.806;2023-02-21T11:46:22;12.50;99.90
19348;DHT22;9810;52.480;9.806;2023-02-21T11:48:57;13.00;99.90
19348;DHT22;9810;52.480;9.806;2023-02-21T11:51:35;13.00;99.90
19348;DHT22;9810;52.480;9.806;2023-02-21T11:54:05;12.60;99.90
19348;DHT22;9810;52.480;9.806;2023-02-21T11:56:48;12.30;99.90
19348;DHT22;9810;52.480;9.806;2023-02-21T11:59:33;12.00;99.90
19348;DHT22;9810;52.480;9.806;2023-02-21T12:02:24;12.10;99.90
19348;DHT22;9810;52.480;9.806;2023-02-21T12:05:07;12.30;99.90
19348;DHT22;9810;52.480;9.806;2023-02-21T12:07:43;12.00;99.90
19348;DHT22;9810;52.480;9.806;2023-02-21T12:10:30;12.10;99.90
19348;DHT22;9810;52.480;9.806;2023-02-21T12:13:08;12.10;99.90
19348;DHT22;9810;52.480;9.806;2023-02-21T12:15:49;12.10;99.90
19348;DHT22;9810;52.480;9.806;2023-02-21T12:18:40;12.20;99.90
19348;DHT22;9810;52.480;9.806;2023-02-21T12:21:32;12.10;99.90
19348;DHT22;9810;52.480;9.806;2023-02-21T12:24:18;12.00;99.90
19348;DHT22;9810;52.480;9.806;2023-02-21T12:26:55;12.10;99.90
19348;DHT22;9810;52.480;9.806;2023-02-21T12:29:42;12.30;99.90
19348;DHT22;9810;52.480;9.806;2023-02-21T12:32:42;12.40;99.90
19348;DHT22;9810;52.480;9.806;2023-02-21T12:35:52;12.40;99.90
19348;DHT22;9810;52.480;9.806;2023-02-21T12:38:33;12.40;99.90
19348;DHT22;9810;52.480;9.806;2023-02-21T12:48:50;12.50;99.90
19348;DHT22;9810;52.480;9.806;2023-02-21T12:51:25;12.50;99.90
19348;DHT22;9810;52.480;9.806;2023-02-21T12:57:46;12.60;99.90
19348;DHT22;9810;52.480;9.806;2023-02-21T13:00:18;12.40;99.90
19348;DHT22;9810;52.480;9.806;2023-02-21T13:03:20;12.30;99.90
19348;DHT22;9810;52.480;9.806;2023-02-21T13:09:19;12.50;99.90
19348;DHT22;9810;52.480;9.806;2023-02-21T13:12:02;12.60;99.90
19348;DHT22;9810;52.480;9.806;2023-02-21T13:14:34;13.30;99.90
19348;DHT22;9810;52.480;9.806;2023-02-21T13:17:03;13.20;99.90
19348;DHT22;9810;52.480;9.806;2023-02-21T13:19:35;12.90;99.90
19348;DHT22;9810;52.480;9.806;2023-02-21T13:25:38;13.00;99.90
19348;DHT22;9810;52.480;9.806;2023-02-21T13:28:13;12.90;99.90
19348;DHT22;9810;52.480;9.806;2023-02-21T13:30:45;12.90;99.90
19348;DHT22;9810;52.480;9.806;2023-02-21T13:33:27;12.80;99.90
19348;DHT22;9810;52.480;9.806;2023-02-21T13:35:59;12.90;99.90
19348;DHT22;9810;52.480;9.806;2023-02-21T13:38:28;12.50;99.90
19348;DHT22;9810;52.480;9.806;2023-02-21T13:41:08;12.60;99.90
19348;DHT22;9810;52.480;9.806;2023-02-21T13:43:46;12.60;99.90
19348;DHT22;9810;52.480;9.806;2023-02-21T13:49:59;12.20;99.90
19348;DHT22;9810;52.480;9.806;2023-02-21T13:52:51;12.30;99.90
19348;DHT22;9810;52.480;9.806;2023-02-21T13:55:28;12.40;99.90
19348;DHT22;9810;52.480;9.806;2023-02-21T14:01:37;12.50;99.90
19348;DHT22;9810;52.480;9.806;2023-02-21T14:07:09;12.40;99.90
19348;DHT22;9810;52.480;9.806;2023-02-21T14:09:39;12.30;99.90
19348;DHT22;9810;52.480;9.806;2023-02-21T14:12:08;12.30;99.90
19348;DHT22;9810;52.480;9.806;2023-02-21T14:14:40;12.20;99.90
19348;DHT22;9810;52.480;9.806;2023-02-21T14:17:11;12.10;99.90
19348;DHT22;9810;52.480;9.806;2023-02-21T14:19:43;12.20;99.90
19348;DHT22;9810;52.480;9.806;2023-02-21T14:22:14;12.30;99.90
19348;DHT22;9810;52.480;9.806;2023-02-21T14:24:44;12.30;99.90
19348;DHT22;9810;52.480;9.806;2023-02-21T14:27:42;12.30;99.90
19348;DHT22;9810;52.480;9.806;2023-02-21T14:30:29;12.20;99.90
19348;DHT22;9810;52.480;9.806;2023-02-21T14:33:20;12.10;99.90
19348;DHT22;9810;52.480;9.806;2023-02-21T14:35:55;12.10;99.90
19348;DHT22;9810;52.480;9.806;2023-02-21T14:38:26;12.10;99.90
19348;DHT22;9810;52.480;9.806;2023-02-21T14:41:11;12.10;99.90
19348;DHT22;9810;52.480;9.806;2023-02-21T14:44:04;12.00;99.90
19348;DHT22;9810;52.480;9.806;2023-02-21T14:46:55;11.90;99.90
19348;DHT22;9810;52.480;9.806;2023-02-21T14:49:53;11.80;99.90
19348;DHT22;9810;52.480;9.806;2023-02-21T14:52:41;11.70;99.90
19348;DHT22;9810;52.480;9.806;2023-02-21T14:55:52;11.80;99.90
19348;DHT22;9810;52.480;9.806;2023-02-21T14:58:39;11.80;99.90
19348;DHT22;9810;52.480;9.806;2023-02-21T15:01:19;11.80;99.90
19348;DHT22;9810;52.480;9.806;2023-02-21T15:03:59;11.70;99.90
19348;DHT22;9810;52.480;9.806;2023-02-21T15:06:31;11.50;99.90
19348;DHT22;9810;52.480;9.806;2023-02-21T15:09:10;11.40;99.90
19348;DHT22;9810;52.480;9.806;2023-02-21T15:11:39;11.40;99.90
19348;DHT22;9810;52.480;9.806;2023-02-21T15:14:13;11.50;99.90
19348;DHT22;9810;52.480;9.806;2023-02-21T15:16:49;11.30;99.90
19348;DHT22;9810;52.480;9.806;2023-02-21T15:19:21;11.20;99.90
19348;DHT22;9810;52.480;9.806;2023-02-21T15:22:14;11.20;99.90
19348;DHT22;9810;52.480;9.806;2023-02-21T15:24:56;11.30;99.90
19348;DHT22;9810;52.480;9.806;2023-02-21T15:27:24;11.20;99.90
19348;DHT22;9810;52.480;9.806;2023-02-21T15:30:04;11.20;99.90
19348;DHT22;9810;52.480;9.806;2023-02-21T15:32:34;11.20;99.90
19348;DHT22;9810;52.480;9.806;2023-02-21T15:35:03;11.20;99.90
19348;DHT22;9810;52.480;9.806;2023-02-21T15:37:34;11.20;99.90
19348;DHT22;9810;52.480;9.806;2023-02-21T15:40:05;11.10;99.90
19348;DHT22;9810;52.480;9.806;2023-02-21T15:42:37;11.10;99.90
19348;DHT22;9810;52.480;9.806;2023-02-21T15:45:08;11.00;99.90
19348;DHT22;9810;52.480;9.806;2023-02-21T15:47:38;11.10;99.90
19348;DHT22;9810;52.480;9.806;2023-02-21T15:50:09;10.90;99.90
19348;DHT22;9810;52.480;9.806;2023-02-21T15:52:41;10.90;99.90
19348;DHT22;9810;52.480;9.806;2023-02-21T15:55:38;10.90;99.90
19348;DHT22;9810;52.480;9.806;2023-02-21T16:19:02;10.50;99.90
19348;DHT22;9810;52.480;9.806;2023-02-21T16:21:29;10.50;99.90
19348;DHT22;9810;52.480;9.806;2023-02-21T16:30:35;10.40;99.90
19348;DHT22;9810;52.480;9.806;2023-02-21T16:33:19;10.30;99.90
19348;DHT22;9810;52.480;9.806;2023-02-21T16:35:58;10.30;99.90
19348;DHT22;9810;52.480;9.806;2023-02-21T16:48:42;10.10;99.90
19348;DHT22;9810;52.480;9.806;2023-02-21T16:58:28;10.30;99.90
19348;DHT22;9810;52.480;9.806;2023-02-21T17:01:00;10.10;99.90
19348;DHT22;9810;52.480;9.806;2023-02-21T17:03:30;10.20;99.90
19348;DHT22;9810;52.480;9.806;2023-02-21T17:06:00;10.10;99.90
19348;DHT22;9810;52.480;9.806;2023-02-21T17:08:28;10.10;99.90
19348;DHT22;9810;52.480;9.806;2023-02-21T17:10:56;10.20;99.90
19348;DHT22;9810;52.480;9.806;2023-02-21T17:13:27;10.10;99.90
19348;DHT22;9810;52.480;9.806;2023-02-21T17:15:59;10.20;99.90
19348;DHT22;9810;52.480;9.806;2023-02-21T17:18:26;10.10;99.90
19348;DHT22;9810;52.480;9.806;2023-02-21T17:20:54;10.10;99.90
19348;DHT22;9810;52.480;9.806;2023-02-21T17:23:22;10.00;99.90
19348;DHT22;9810;52.480;9.806;2023-02-21T17:25:49;10.00;99.90
19348;DHT22;9810;52.480;9.806;2023-02-21T17:28:16;10.00;99.90
19348;DHT22;9810;52.480;9.806;2023-02-21T17:30:46;10.00;99.90
19348;DHT22;9810;52.480;9.806;2023-02-21T17:33:13;10.10;99.90
19348;DHT22;9810;52.480;9.806;2023-02-21T17:35:40;10.00;99.90
19348;DHT22;9810;52.480;9.806;2023-02-21T17:38:11;10.00;99.90
19348;DHT22;9810;52.480;9.806;2023-02-21T17:40:38;10.00;99.90
19348;DHT22;9810;52.480;9.806;2023-02-21T17:43:06;9.80;99.90
19348;DHT22;9810;52.480;9.806;2023-02-21T17:45:33;9.90;99.90
19348;DHT22;9810;52.480;9.806;2023-02-21T17:48:04;10.00;99.90
19348;DHT22;9810;52.480;9.806;2023-02-21T17:50:31;10.00;99.90
19348;DHT22;9810;52.480;9.806;2023-02-21T17:52:59;10.00;99.90
19348;DHT22;9810;52.480;9.806;2023-02-21T17:55:26;9.90;99.90
19348;DHT22;9810;52.480;9.806;2023-02-21T17:57:55;10.00;99.90
19348;DHT22;9810;52.480;9.806;2023-02-21T18:00:24;10.00;99.90